createdAt,value
2018-05-06T00:00:56.179Z,14.13
2018-05-06T00:03:24.368Z,14.07
2018-05-06T00:05:51.933Z,14.00
2018-05-06T00:08:19.558Z,13.77
2018-05-06T00:10:47.127Z,13.50
2018-05-06T00:13:14.804Z,14.00
2018-05-06T00:15:42.401Z,13.93
2018-05-06T00:18:10.832Z,13.93
2018-05-06T00:20:38.429Z,13.20
2018-05-06T00:23:06.049Z,14.80
2018-05-06T00:25:33.620Z,14.23
2018-05-06T00:28:01.197Z,14.00
2018-05-06T00:30:28.770Z,14.73
2018-05-06T00:32:56.407Z,13.10
2018-05-06T00:35:23.974Z,14.70
2018-05-06T00:37:51.622Z,14.73
2018-05-06T00:40:19.262Z,14.10
2018-05-06T00:42:46.851Z,15.07
2018-05-06T00:45:14.459Z,14.90
2018-05-06T00:47:42.875Z,15.10
2018-05-06T00:50:10.520Z,14.73
2018-05-06T00:52:38.106Z,15.57
2018-05-06T00:55:05.671Z,14.90
2018-05-06T00:57:33.306Z,15.27
2018-05-06T01:00:00.944Z,14.17
2018-05-06T01:02:29.358Z,15.50
2018-05-06T01:04:56.964Z,15.63
2018-05-06T01:07:24.571Z,13.47
2018-05-06T01:09:52.143Z,14.20
2018-05-06T01:12:19.812Z,15.20
2018-05-06T01:14:47.450Z,14.37
2018-05-06T01:17:34.014Z,14.00
2018-05-06T01:20:01.654Z,14.13
2018-05-06T01:22:29.306Z,15.40
2018-05-06T01:24:56.933Z,16.50
2018-05-06T01:27:24.508Z,15.73
2018-05-06T01:29:52.086Z,15.70
2018-05-06T01:32:19.673Z,14.70
2018-05-06T01:34:47.267Z,14.50
2018-05-06T01:37:14.889Z,15.03
2018-05-06T01:39:42.471Z,15.00
2018-05-06T01:42:10.837Z,14.73
2018-05-06T01:44:38.421Z,14.20
2018-05-06T01:47:05.997Z,15.43
2018-05-06T01:49:33.596Z,16.10
2018-05-06T01:52:01.195Z,15.50
2018-05-06T01:54:29.627Z,15.63
2018-05-06T01:56:57.188Z,16.63
2018-05-06T01:59:24.802Z,16.90
2018-05-06T02:01:53.145Z,15.53
2018-05-06T02:04:20.737Z,14.87
2018-05-06T02:06:49.127Z,15.07
2018-05-06T02:09:16.722Z,14.57
2018-05-06T02:11:44.366Z,17.60
2018-05-06T02:14:11.961Z,16.03
2018-05-06T02:16:39.562Z,17.03
2018-05-06T02:19:07.141Z,17.73
2018-05-06T02:21:34.769Z,17.77
2018-05-06T02:24:03.142Z,16.20
2018-05-06T02:26:30.770Z,17.60
2018-05-06T02:28:58.395Z,17.37
2018-05-06T02:31:25.941Z,16.47
2018-05-06T02:33:53.551Z,16.20
2018-05-06T02:36:21.121Z,17.70
2018-05-06T02:38:48.773Z,17.30
2018-05-06T02:41:16.367Z,17.00
2018-05-06T02:43:44.714Z,16.87
2018-05-06T02:46:12.350Z,17.03
2018-05-06T02:48:39.989Z,17.07
2018-05-06T02:51:07.550Z,17.03
2018-05-06T02:53:35.149Z,16.80
2018-05-06T02:56:02.722Z,17.00
2018-05-06T02:58:30.289Z,17.47
2018-05-06T03:00:57.890Z,16.53
2018-05-06T03:03:25.450Z,19.30
2018-05-06T03:05:53.036Z,17.80
2018-05-06T03:08:20.669Z,16.47
2018-05-06T03:10:48.269Z,17.20
2018-05-06T03:13:15.862Z,17.30
2018-05-06T03:15:44.229Z,16.60
2018-05-06T03:18:11.839Z,16.73
2018-05-06T03:20:39.397Z,16.70
2018-05-06T03:23:07.014Z,16.57
2018-05-06T03:25:34.646Z,16.53
2018-05-06T03:28:02.264Z,15.80
2018-05-06T03:30:30.602Z,16.37
2018-05-06T03:32:58.233Z,16.77
2018-05-06T03:35:25.856Z,16.93
2018-05-06T03:37:54.294Z,17.50
2018-05-06T03:40:21.907Z,16.10
2018-05-06T03:42:49.517Z,17.10
2018-05-06T03:45:17.061Z,16.30
2018-05-06T03:47:44.667Z,18.07
2018-05-06T03:50:13.862Z,16.23
2018-05-06T03:52:41.489Z,16.80
2018-05-06T03:55:09.113Z,16.53
2018-05-06T03:57:48.355Z,17.33
2018-05-06T04:00:27.833Z,17.20
2018-05-06T04:02:55.721Z,16.83
2018-05-06T04:05:23.297Z,16.60
2018-05-06T04:07:51.725Z,16.47
2018-05-06T04:10:19.354Z,16.53
2018-05-06T04:12:46.958Z,17.47
2018-05-06T04:15:14.523Z,16.77
2018-05-06T04:17:42.114Z,16.90
2018-05-06T04:20:10.481Z,15.77
2018-05-06T04:22:38.874Z,15.63
2018-05-06T04:25:07.197Z,14.70
2018-05-06T04:27:34.856Z,13.80
2018-05-06T04:30:02.442Z,15.20
2018-05-06T04:32:30.034Z,14.13
2018-05-06T04:34:58.433Z,14.27
2018-05-06T04:40:31.057Z,13.30
2018-05-06T04:42:58.644Z,14.20
2018-05-06T04:45:26.238Z,13.50
2018-05-06T04:47:53.803Z,12.80
2018-05-06T04:50:21.415Z,12.73
2018-05-06T04:52:49.069Z,13.27
2018-05-06T04:55:16.713Z,12.73
2018-05-06T04:57:44.306Z,12.73
2018-05-06T05:00:11.881Z,13.33
2018-05-06T05:02:40.249Z,12.43
2018-05-06T05:05:08.589Z,12.80
2018-05-06T05:07:36.202Z,13.63
2018-05-06T05:16:03.749Z,12.47
2018-05-06T05:18:31.328Z,12.13
2018-05-06T05:32:38.058Z,10.57
2018-05-06T05:35:05.647Z,9.93
2018-05-06T05:37:33.259Z,10.20
2018-05-06T05:40:00.887Z,10.20
2018-05-06T05:42:29.264Z,10.30
2018-05-06T05:48:07.505Z,10.13
2018-05-06T05:53:49.707Z,9.77
2018-05-06T05:56:17.345Z,9.27
2018-05-06T05:58:50.446Z,9.70
2018-05-06T06:07:17.462Z,9.70
2018-05-06T06:09:45.819Z,9.77
2018-05-06T06:12:13.403Z,9.60
2018-05-06T06:14:41.752Z,9.70
2018-05-06T06:17:28.088Z,8.80
2018-05-06T06:19:55.717Z,9.37
2018-05-06T06:22:23.297Z,9.60
2018-05-06T06:24:51.696Z,9.47
2018-05-06T06:27:19.335Z,10.27
2018-05-06T06:50:10.844Z,9.20
2018-05-06T06:52:38.418Z,9.57
2018-05-06T06:55:05.989Z,9.30
2018-05-06T06:57:33.671Z,8.83
2018-05-06T07:00:02.054Z,9.00
2018-05-06T07:02:30.385Z,8.70
2018-05-06T07:04:58.079Z,8.50
2018-05-06T07:07:25.664Z,8.60
2018-05-06T07:09:53.305Z,8.23
2018-05-06T07:12:21.649Z,8.07
2018-05-06T07:14:49.220Z,8.67
2018-05-06T07:17:16.791Z,7.60
2018-05-06T07:19:44.374Z,8.10
2018-05-06T07:22:11.994Z,7.93
2018-05-06T07:24:39.606Z,8.07
2018-05-06T07:27:07.217Z,8.13
2018-05-06T07:29:34.772Z,7.50
2018-05-06T07:32:02.366Z,7.57
2018-05-06T07:37:43.771Z,8.23
2018-05-06T07:40:12.092Z,8.10
2018-05-06T07:42:39.756Z,8.20
2018-05-06T07:45:07.359Z,7.97
2018-05-06T07:47:34.981Z,7.80
2018-05-06T07:50:02.538Z,7.57
2018-05-06T07:52:30.149Z,7.63
2018-05-06T07:54:58.488Z,8.07
2018-05-06T07:57:26.055Z,7.23
2018-05-06T07:59:53.629Z,7.43
2018-05-06T08:02:21.200Z,7.50
2018-05-06T08:04:49.609Z,7.60
2018-05-06T08:07:17.259Z,7.50
2018-05-06T08:09:45.577Z,7.57
2018-05-06T08:12:13.218Z,7.47
2018-05-06T08:14:40.779Z,8.00
2018-05-06T08:17:08.341Z,7.53
2018-05-06T08:19:35.996Z,7.40
2018-05-06T08:22:03.636Z,6.80
2018-05-06T08:24:31.995Z,7.57
2018-05-06T08:26:59.566Z,6.57
2018-05-06T08:29:27.929Z,6.67
2018-05-06T08:31:55.562Z,5.80
2018-05-06T08:34:23.208Z,5.97
2018-05-06T08:36:50.841Z,5.87
2018-05-06T08:39:18.412Z,5.47
2018-05-06T08:41:46.056Z,5.53
2018-05-06T08:44:14.450Z,5.30
2018-05-06T08:46:42.013Z,5.20
2018-05-06T08:49:09.598Z,5.80
2018-05-06T08:51:37.198Z,5.00
2018-05-06T08:54:04.793Z,5.27
2018-05-06T08:56:32.440Z,4.93
2018-05-06T08:59:00.013Z,5.23
2018-05-06T09:01:27.615Z,5.03
2018-05-06T09:03:55.218Z,4.93
2018-05-06T09:06:23.561Z,4.53
2018-05-06T09:08:51.181Z,5.50
2018-05-06T09:11:18.718Z,5.90
2018-05-06T09:13:46.325Z,5.90
2018-05-06T09:16:13.943Z,5.50
2018-05-06T09:24:31.996Z,4.90
2018-05-06T09:27:00.426Z,5.40
2018-05-06T09:29:28.030Z,5.40
2018-05-06T09:31:55.593Z,4.93
2018-05-06T09:34:24.011Z,5.17
2018-05-06T09:36:52.333Z,5.33
2018-05-06T09:39:19.912Z,5.30
2018-05-06T09:41:48.315Z,5.60
2018-05-06T09:44:15.924Z,5.67
2018-05-06T09:46:43.504Z,6.10
2018-05-06T09:49:11.108Z,5.67
2018-05-06T09:51:38.705Z,5.80
2018-05-06T09:54:06.313Z,6.60
2018-05-06T09:56:33.861Z,6.60
2018-05-06T09:59:02.274Z,6.17
2018-05-06T10:01:29.863Z,6.70
2018-05-06T10:03:57.466Z,7.20
2018-05-06T10:06:25.061Z,6.70
2018-05-06T10:08:52.671Z,6.50
2018-05-06T10:11:21.053Z,6.70
2018-05-06T10:13:49.438Z,6.23
2018-05-06T10:16:17.794Z,6.83
2018-05-06T10:18:45.451Z,6.97
2018-05-06T10:21:13.021Z,6.50
2018-05-06T10:23:40.601Z,7.00
2018-05-06T10:26:08.286Z,6.80
2018-05-06T10:28:36.589Z,6.63
2018-05-06T10:31:04.192Z,7.30
2018-05-06T10:33:32.583Z,6.03
2018-05-06T10:36:00.162Z,6.80
2018-05-06T10:38:27.794Z,5.73
2018-05-06T10:40:55.315Z,5.40
2018-05-06T10:43:22.878Z,5.50
2018-05-06T10:45:50.514Z,5.40
2018-05-06T10:48:18.131Z,6.40
2018-05-06T10:50:46.529Z,5.90
2018-05-06T10:53:15.241Z,5.63
2018-05-06T10:55:42.830Z,5.50
2018-05-06T10:58:10.415Z,5.73
2018-05-06T11:00:38.767Z,5.27
2018-05-06T11:03:06.391Z,5.50
2018-05-06T11:05:33.987Z,5.17
2018-05-06T11:08:01.552Z,5.53
2018-05-06T11:10:29.199Z,5.10
2018-05-06T11:12:56.744Z,5.87
2018-05-06T11:15:24.374Z,5.50
2018-05-06T11:17:51.981Z,5.60
2018-05-06T11:20:19.538Z,4.87
2018-05-06T11:22:47.129Z,5.10
2018-05-06T11:25:15.474Z,5.03
2018-05-06T11:27:43.070Z,4.87
2018-05-06T11:30:10.667Z,4.60
2018-05-06T11:32:38.247Z,4.87
2018-05-06T11:35:05.830Z,4.73
2018-05-06T11:37:33.408Z,4.50
2018-05-06T11:40:01.751Z,4.97
2018-05-06T11:42:29.334Z,4.30
2018-05-06T11:44:56.913Z,4.37
2018-05-06T11:47:25.251Z,4.30
2018-05-06T11:49:52.790Z,4.53
2018-05-06T11:52:21.161Z,4.33
2018-05-06T11:54:48.790Z,4.10
2018-05-06T11:57:17.163Z,4.50
2018-05-06T11:59:45.486Z,3.83
2018-05-06T12:02:13.078Z,4.00
2018-05-06T12:04:40.696Z,4.00
2018-05-06T12:07:09.084Z,4.30
2018-05-06T12:09:36.744Z,4.07
2018-05-06T12:12:04.351Z,3.70
2018-05-06T12:14:31.959Z,4.20
2018-05-06T12:16:59.564Z,3.90
2018-05-06T12:19:27.132Z,3.57
2018-05-06T12:21:55.510Z,3.60
2018-05-06T12:24:23.937Z,4.00
2018-05-06T12:26:51.533Z,4.13
2018-05-06T12:29:19.115Z,4.20
2018-05-06T12:31:47.443Z,4.10
2018-05-06T12:34:15.034Z,3.70
2018-05-06T12:36:42.652Z,3.73
2018-05-06T12:39:10.195Z,3.73
2018-05-06T12:41:37.768Z,4.03
2018-05-06T12:44:05.323Z,4.30
2018-05-06T12:46:32.898Z,3.93
2018-05-06T12:49:00.487Z,3.60
2018-05-06T12:51:28.058Z,3.93
2018-05-06T12:53:55.603Z,4.00
2018-05-06T12:56:23.252Z,3.70
2018-05-06T12:58:50.822Z,3.47
2018-05-06T13:01:18.425Z,3.80
2018-05-06T13:03:46.050Z,3.50
2018-05-06T13:06:13.593Z,3.60
2018-05-06T13:08:41.260Z,3.90
2018-05-06T13:11:09.541Z,4.20
2018-05-06T13:13:37.140Z,4.17
2018-05-06T13:16:04.709Z,3.63
2018-05-06T13:18:32.302Z,3.73
2018-05-06T13:20:59.858Z,4.20
2018-05-06T13:23:27.412Z,3.83
2018-05-06T13:25:55.037Z,3.60
2018-05-06T13:28:23.382Z,3.97
2018-05-06T13:30:51.017Z,3.83
2018-05-06T13:33:18.586Z,3.60
2018-05-06T13:36:00.770Z,3.53
2018-05-06T13:38:28.361Z,3.53
2018-05-06T13:49:49.288Z,3.77
2018-05-06T13:52:23.130Z,3.90
2018-05-06T13:54:50.694Z,3.60
2018-05-06T13:57:18.283Z,4.20
2018-05-06T13:59:46.669Z,3.60
2018-05-06T14:02:15.064Z,3.40
2018-05-06T14:04:42.670Z,3.73
2018-05-06T14:07:10.280Z,3.67
2018-05-06T14:09:45.686Z,3.40
2018-05-06T14:12:13.240Z,3.40
2018-05-06T14:14:40.804Z,3.53
2018-05-06T14:17:08.414Z,3.53
2018-05-06T14:19:50.532Z,3.60
2018-05-06T14:22:18.135Z,3.93
2018-05-06T14:24:46.491Z,3.43
2018-05-06T14:27:14.079Z,3.70
2018-05-06T14:29:42.429Z,3.87
2018-05-06T14:35:20.943Z,3.50
2018-05-06T14:37:48.497Z,3.80
2018-05-06T14:40:16.105Z,3.80
2018-05-06T14:42:43.738Z,4.10
2018-05-06T14:45:11.342Z,3.83
2018-05-06T14:47:51.464Z,3.77
2018-05-06T14:50:19.101Z,3.40
2018-05-06T14:52:50.637Z,3.70
2018-05-06T14:55:29.345Z,3.47
2018-05-06T14:57:56.924Z,3.73
2018-05-06T15:00:32.122Z,3.90
2018-05-06T15:03:02.421Z,3.80
2018-05-06T15:05:29.988Z,3.43
2018-05-06T15:07:57.577Z,3.80
2018-05-06T15:10:25.334Z,3.87
2018-05-06T15:12:52.812Z,3.67
2018-05-06T15:15:25.804Z,4.10
2018-05-06T15:17:53.416Z,3.83
2018-05-06T15:20:21.055Z,4.10
2018-05-06T15:22:49.067Z,3.80
2018-05-06T15:25:24.853Z,3.67
2018-05-06T15:27:52.426Z,3.97
2018-05-06T15:30:20.034Z,3.40
2018-05-06T15:32:48.382Z,3.80
2018-05-06T15:35:16.013Z,3.43
2018-05-06T15:37:43.626Z,3.87
2018-05-06T15:40:12.000Z,3.97
2018-05-06T15:42:39.588Z,3.70
2018-05-06T15:45:07.213Z,3.30
2018-05-06T15:47:34.805Z,3.90
2018-05-06T15:50:02.387Z,3.10
2018-05-06T15:52:29.992Z,3.43
2018-05-06T15:54:57.604Z,3.37
2018-05-06T15:57:25.173Z,3.30
2018-05-06T15:59:52.752Z,3.17
2018-05-06T16:02:50.907Z,3.10
2018-05-06T16:05:18.454Z,3.30
2018-05-06T16:07:46.072Z,2.70
2018-05-06T16:10:13.649Z,3.17
2018-05-06T16:12:42.076Z,3.30
2018-05-06T16:15:09.683Z,3.67
2018-05-06T16:17:38.145Z,3.90
2018-05-06T16:20:05.718Z,3.30
2018-05-06T16:22:34.143Z,3.33
2018-05-06T16:25:01.791Z,3.47
2018-05-06T16:27:29.414Z,3.40
2018-05-06T16:29:57.081Z,3.60
2018-05-06T16:32:24.680Z,2.90
2018-05-06T16:37:49.236Z,3.20
2018-05-06T16:40:16.842Z,3.00
2018-05-06T16:42:44.403Z,3.00
2018-05-06T16:45:12.024Z,2.70
2018-05-06T16:47:39.631Z,3.30
2018-05-06T16:50:07.191Z,3.20
2018-05-06T16:52:34.776Z,3.70
2018-05-06T16:55:02.358Z,3.53
2018-05-06T16:57:29.954Z,3.33
2018-05-06T16:59:57.539Z,4.10
2018-05-06T17:02:25.190Z,3.53
2018-05-06T17:04:52.752Z,3.90
2018-05-06T17:07:20.383Z,3.57
2018-05-06T17:15:51.330Z,6.57
2018-05-06T17:18:18.954Z,3.10
2018-05-06T17:20:46.500Z,3.00
2018-05-06T17:23:14.092Z,3.20
2018-05-06T17:25:44.962Z,3.00
2018-05-06T17:28:16.808Z,3.27
2018-05-06T17:30:51.387Z,3.17
2018-05-06T17:33:29.398Z,2.90
2018-05-06T17:36:09.850Z,3.07
2018-05-06T17:38:42.262Z,3.00
2018-05-06T17:41:10.862Z,3.10
2018-05-06T17:43:38.485Z,2.90
2018-05-06T17:46:09.902Z,2.60
2018-05-06T17:48:38.363Z,2.80
2018-05-06T17:54:02.175Z,3.37
2018-05-06T17:56:30.504Z,3.27
2018-05-06T18:08:00.344Z,2.70
2018-05-06T18:10:27.939Z,2.83
2018-05-06T18:12:55.522Z,2.83
2018-05-06T18:15:23.110Z,2.97
2018-05-06T18:17:50.698Z,2.63
2018-05-06T18:20:18.369Z,3.40
2018-05-06T18:22:46.048Z,3.07
2018-05-06T18:25:13.620Z,2.60
2018-05-06T18:27:41.208Z,3.17
2018-05-06T18:30:09.952Z,2.97
2018-05-06T18:32:37.551Z,3.00
2018-05-06T18:35:05.904Z,2.80
2018-05-06T18:40:35.478Z,2.83
2018-05-06T18:43:03.066Z,2.87
2018-05-06T18:45:30.661Z,3.23
2018-05-06T18:47:58.258Z,2.77
2018-05-06T18:50:25.877Z,3.00
2018-05-06T18:52:53.430Z,2.80
2018-05-06T18:55:21.034Z,3.03
2018-05-06T18:58:10.107Z,2.73
2018-05-06T19:00:37.740Z,2.67
2018-05-06T19:03:06.202Z,3.10
2018-05-06T19:05:33.820Z,3.30
2018-05-06T19:08:01.475Z,3.27
2018-05-06T19:10:29.070Z,3.13
2018-05-06T19:12:56.666Z,3.20
2018-05-06T19:15:25.049Z,3.23
2018-05-06T19:17:53.370Z,2.90
2018-05-06T19:20:34.949Z,2.90
2018-05-06T19:23:02.591Z,2.97
2018-05-06T19:25:30.221Z,2.90
2018-05-06T19:27:58.527Z,2.83
2018-05-06T19:30:26.115Z,3.03
2018-05-06T19:32:53.732Z,2.87
2018-05-06T19:35:21.319Z,2.90
2018-05-06T19:37:48.977Z,2.90
2018-05-06T19:40:17.298Z,3.10
2018-05-06T19:42:44.888Z,3.20
2018-05-06T19:45:13.222Z,2.93
2018-05-06T19:56:26.395Z,2.77
2018-05-06T20:02:00.235Z,3.50
2018-05-06T20:04:27.878Z,3.50
2018-05-06T20:06:55.482Z,3.50
2018-05-06T20:09:23.880Z,2.83
2018-05-06T20:11:51.453Z,3.27
2018-05-06T20:14:19.268Z,2.90
2018-05-06T20:16:46.863Z,3.20
2018-05-06T20:19:14.488Z,3.20
2018-05-06T20:21:42.160Z,3.00
2018-05-06T20:24:09.687Z,3.00
2018-05-06T20:26:37.309Z,3.03
2018-05-06T20:29:04.899Z,3.20
2018-05-06T20:31:32.515Z,2.57
2018-05-06T20:34:00.903Z,3.00
2018-05-06T20:36:28.509Z,3.17
2018-05-06T20:38:56.074Z,3.00
2018-05-06T20:41:23.695Z,3.77
2018-05-06T20:43:51.318Z,3.00
2018-05-06T20:46:18.938Z,2.70
2018-05-06T20:48:46.572Z,2.90
2018-05-06T20:51:14.201Z,3.10
2018-05-06T20:53:41.789Z,2.67
2018-05-06T20:56:09.382Z,2.80
2018-05-06T20:58:37.002Z,2.50
2018-05-06T21:01:05.333Z,2.83
2018-05-06T21:03:32.930Z,3.10
2018-05-06T21:06:01.328Z,2.80
2018-05-06T21:08:28.973Z,3.10
2018-05-06T21:10:57.333Z,2.90
2018-05-06T21:13:24.938Z,2.97
2018-05-06T21:15:52.585Z,2.67
2018-05-06T21:18:20.176Z,2.60
2018-05-06T21:20:47.792Z,2.73
2018-05-06T21:23:16.130Z,2.60
2018-05-06T21:25:43.721Z,2.67
2018-05-06T21:28:11.398Z,2.50
2018-05-06T21:30:39.036Z,2.50
2018-05-06T21:33:06.632Z,2.47
2018-05-06T21:35:34.232Z,2.93
2018-05-06T21:38:01.785Z,2.77
2018-05-06T21:40:29.395Z,2.43
2018-05-06T21:42:57.793Z,2.53
2018-05-06T21:45:25.400Z,2.50
2018-05-06T21:47:53.044Z,2.33
2018-05-06T21:50:20.728Z,2.30
2018-05-06T21:52:48.260Z,2.53
2018-05-06T21:55:15.881Z,2.40
2018-05-06T21:57:44.227Z,2.50
2018-05-06T22:00:11.805Z,2.40
2018-05-06T22:02:39.363Z,2.37
2018-05-06T22:05:07.700Z,2.50
2018-05-06T22:07:35.592Z,2.63
2018-05-06T22:10:03.195Z,2.27
2018-05-06T22:12:30.846Z,2.77
2018-05-06T22:14:59.195Z,2.40
2018-05-06T22:17:26.801Z,2.47
2018-05-06T22:19:54.433Z,2.60
2018-05-06T22:22:22.835Z,2.60
2018-05-06T22:24:50.417Z,2.00
2018-05-06T22:27:18.024Z,2.37
2018-05-06T22:29:45.633Z,2.63
2018-05-06T22:32:13.224Z,2.40
2018-05-06T22:34:40.806Z,2.40
2018-05-06T22:37:08.425Z,2.10
2018-05-06T22:39:36.037Z,2.30
2018-05-06T22:42:04.435Z,2.50
2018-05-06T22:44:32.030Z,2.50
2018-05-06T22:47:06.661Z,2.50
2018-05-06T22:49:34.294Z,2.43
2018-05-06T22:52:01.853Z,2.47
2018-05-06T22:54:29.417Z,2.40
2018-05-06T22:56:57.013Z,2.40
2018-05-06T22:59:24.654Z,2.43
2018-05-06T23:01:52.235Z,2.30
2018-05-06T23:04:19.940Z,2.60
2018-05-06T23:06:47.458Z,2.50
2018-05-06T23:09:15.103Z,2.60
2018-05-06T23:11:42.732Z,2.97
2018-05-06T23:14:10.329Z,2.60
2018-05-06T23:16:37.977Z,2.57
2018-05-06T23:19:05.601Z,2.57
2018-05-06T23:21:33.967Z,2.50
2018-05-06T23:24:02.307Z,2.50
2018-05-06T23:26:29.961Z,2.70
2018-05-06T23:28:57.486Z,2.97
2018-05-06T23:31:25.111Z,2.50
2018-05-06T23:33:53.497Z,2.67
2018-05-06T23:36:21.149Z,2.57
2018-05-06T23:38:48.792Z,2.30
2018-05-06T23:41:16.378Z,2.60
2018-05-06T23:43:44.816Z,2.30
2018-05-06T23:46:12.370Z,2.73
2018-05-06T23:48:39.973Z,2.70
2018-05-06T23:51:08.345Z,3.00
2018-05-06T23:53:35.945Z,2.43
2018-05-06T23:56:03.509Z,2.70
2018-05-06T23:58:31.127Z,2.90
